Time;durP1;ratioP1;P1;durP2;ratioP2;P2;SDS_P1;SDS_P2;PMS_P1;PMS_P2;Temp;Humidity;BMP_temperature;BMP_pressure;BME280_temperature;BME280_humidity;BME280_pressure;Samples;Min_cycle;Max_cycle;Signal;HPM_P1;HPM_P2
2021/06/22 07:10:22;;;;;;;4.35;2.65;;;;;;;;;;13098473;22;369052;-84
2021/06/22 07:15:23;;;;;;;8.50;4.20;;;;;;;;;;13118746;22;20018;-84
2021/06/22 07:20:24;;;;;;;7.72;2.67;;;;;;;;;;13115173;22;20090;-84
2021/06/22 07:25:26;;;;;;;6.70;4.10;;;;;;;;;;13113229;22;20021;-84
2021/06/22 07:30:27;;;;;;;7.10;3.13;;;;;;;;;;13109598;22;20006;-85
2021/06/22 07:35:32;;;;;;;6.35;3.10;;;;;;;;;;13117110;22;19999;-87
2021/06/22 07:40:33;;;;;;;8.88;2.70;;;;;;;;;;13114977;22;19998;-86
2021/06/22 07:45:37;;;;;;;6.63;2.67;;;;;;;;;;13111884;22;19999;-86
2021/06/22 07:50:38;;;;;;;4.80;2.22;;;;;;;;;;13109469;22;20002;-85
2021/06/22 07:55:39;;;;;;;4.80;2.10;;;;;;;;;;13143345;22;19991;-86
2021/06/22 08:00:45;;;;;;;5.20;2.30;;;;;;;;;;13113311;22;20093;-85
2021/06/22 08:05:47;;;;;;;4.82;2.72;;;;;;;;;;13115567;22;20074;-86
2021/06/22 08:10:51;;;;;;;4.70;2.22;;;;;;;;;;13117339;22;20037;-87
2021/06/22 08:15:52;;;;;;;4.43;1.98;;;;;;;;;;13130941;22;20316;-85
2021/06/22 08:20:54;;;;;;;7.15;2.10;;;;;;;;;;13133719;22;20010;-86
2021/06/22 08:25:55;;;;;;;6.68;2.40;;;;;;;;;;13115511;22;20038;-86
2021/06/22 08:30:56;;;;;;;4.50;1.88;;;;;;;;;;13115456;22;20006;-87
2021/06/22 08:35:57;;;;;;;5.68;2.40;;;;;;;;;;13116557;22;19999;-87
2021/06/22 08:40:58;;;;;;;4.45;1.63;;;;;;;;;;13117694;22;20013;-85
2021/06/22 08:46:03;;;;;;;5.05;2.33;;;;;;;;;;13118351;22;20007;-84
2021/06/22 08:51:04;;;;;;;4.07;2.00;;;;;;;;;;13114446;22;20386;-85
2021/06/22 08:56:05;;;;;;;3.72;2.22;;;;;;;;;;13123192;22;20010;-84
2021/06/22 09:01:06;;;;;;;4.97;2.17;;;;;;;;;;13116185;22;20425;-82
2021/06/22 09:06:07;;;;;;;6.38;1.95;;;;;;;;;;13112431;22;20002;-82
2021/06/22 09:11:09;;;;;;;8.35;2.05;;;;;;;;;;13108432;22;20002;-84
2021/06/22 09:16:11;;;;;;;3.50;2.03;;;;;;;;;;13114386;22;19998;-85
2021/06/22 09:21:25;;;;;;;4.15;2.20;;;;;;;;;;13120537;22;20003;-85
2021/06/22 09:26:35;;;;;;;3.17;1.90;;;;;;;;;;13112954;22;20017;-86
2021/06/22 09:31:36;;;;;;;4.57;2.20;;;;;;;;;;13113480;22;20006;-86
2021/06/22 09:36:37;;;;;;;5.18;2.50;;;;;;;;;;13112524;22;20403;-84
2021/06/22 09:41:40;;;;;;;4.45;2.40;;;;;;;;;;13142966;22;20013;-83
2021/06/22 09:46:52;;;;;;;4.43;2.72;;;;;;;;;;13108231;22;20082;-83
2021/06/22 09:52:03;;;;;;;6.13;3.13;;;;;;;;;;13102344;22;20067;-84
2021/06/22 09:57:05;;;;;;;7.63;2.80;;;;;;;;;;13105204;22;19999;-83
2021/06/22 10:02:10;;;;;;;6.20;2.80;;;;;;;;;;13116185;22;20003;-84
2021/06/22 10:07:12;;;;;;;3.80;1.95;;;;;;;;;;13110654;22;20041;-85
2021/06/22 10:12:20;;;;;;;4.97;1.90;;;;;;;;;;13140698;22;20003;-84
2021/06/22 10:17:22;;;;;;;3.08;1.70;;;;;;;;;;13103704;22;20403;-83
2021/06/22 10:22:25;;;;;;;5.00;1.73;;;;;;;;;;13105494;22;20063;-83
2021/06/22 10:27:28;;;;;;;3.38;1.90;;;;;;;;;;13106372;22;20156;-83
2021/06/22 10:32:30;;;;;;;4.28;1.73;;;;;;;;;;13106729;22;20002;-86
2021/06/22 10:37:33;;;;;;;7.40;2.13;;;;;;;;;;13108679;22;20091;-85
2021/06/22 10:42:56;;;;;;;2.72;1.70;;;;;;;;;;13119599;22;20003;-86
2021/06/22 10:48:05;;;;;;;3.53;1.73;;;;;;;;;;13111319;22;20439;-85
2021/06/22 10:53:12;;;;;;;;;;;;;;;;;;13110236;22;20033;-86
2021/06/22 10:58:14;;;;;;;4.18;2.03;;;;;;;;;;13111151;22;19977;-85
2021/06/22 11:03:22;;;;;;;4.10;1.75;;;;;;;;;;13140386;22;20048;-85
2021/06/22 11:08:31;;;;;;;4.90;1.83;;;;;;;;;;13118123;22;20385;-85
2021/06/22 11:13:39;;;;;;;4.18;1.88;;;;;;;;;;13118992;22;20005;-86
2021/06/22 11:18:59;;;;;;;7.85;2.55;;;;;;;;;;13094406;22;20026;-86
2021/06/22 11:24:03;;;;;;;3.92;1.88;;;;;;;;;;13073170;22;20088;-85
2021/06/22 11:29:04;;;;;;;2.70;1.75;;;;;;;;;;13072481;22;20289;-85
2021/06/22 11:34:21;;;;;;;4.15;2.00;;;;;;;;;;13072308;22;20105;-85
2021/06/22 11:39:28;;;;;;;6.03;1.70;;;;;;;;;;13073738;22;19999;-84
2021/06/22 11:44:29;;;;;;;4.78;2.08;;;;;;;;;;13070537;22;20059;-84
2021/06/22 11:49:44;;;;;;;3.80;1.92;;;;;;;;;;13067082;22;19999;-85
2021/06/22 11:54:51;;;;;;;4.82;2.08;;;;;;;;;;13068600;22;20283;-86
2021/06/22 11:59:52;;;;;;;9.90;2.28;;;;;;;;;;13069155;22;20003;-85
2021/06/22 12:04:53;;;;;;;5.20;2.10;;;;;;;;;;13066738;22;20007;-86
2021/06/22 12:09:54;;;;;;;6.75;3.15;;;;;;;;;;13071022;22;20051;-86
2021/06/22 12:14:56;;;;;;;4.43;3.25;;;;;;;;;;13067610;22;20010;-87
2021/06/22 12:19:57;;;;;;;3.75;1.92;;;;;;;;;;13065114;22;20430;-87
2021/06/22 12:24:58;;;;;;;3.85;2.38;;;;;;;;;;13066147;22;20029;-87
2021/06/22 12:29:59;;;;;;;4.25;1.83;;;;;;;;;;13064999;22;20010;-86
2021/06/22 12:35:00;;;;;;;5.38;3.08;;;;;;;;;;13066688;22;19999;-87
2021/06/22 12:40:01;;;;;;;5.80;3.10;;;;;;;;;;13068531;22;20062;-86
2021/06/22 12:45:10;;;;;;;4.07;2.42;;;;;;;;;;13070967;22;20049;-87
2021/06/22 12:50:11;;;;;;;4.13;2.65;;;;;;;;;;13068883;22;20003;-86
2021/06/22 12:55:34;;;;;;;4.85;2.05;;;;;;;;;;13077608;22;20026;-87
2021/06/22 13:00:41;;;;;;;4.65;2.33;;;;;;;;;;13088394;22;20003;-85
2021/06/22 13:05:43;;;;;;;6.43;2.38;;;;;;;;;;13073887;22;20002;-86
2021/06/22 13:10:55;;;;;;;7.03;3.08;;;;;;;;;;13071117;22;20006;-85
2021/06/22 13:16:13;;;;;;;3.90;2.45;;;;;;;;;;13072474;22;19999;-84
2021/06/22 13:21:14;;;;;;;6.40;2.40;;;;;;;;;;13072203;22;20013;-86
2021/06/22 13:26:15;;;;;;;4.53;2.38;;;;;;;;;;13072916;22;20003;-84
2021/06/22 13:31:16;;;;;;;4.85;3.90;;;;;;;;;;13074933;22;20049;-83
2021/06/22 13:36:19;;;;;;;8.93;3.53;;;;;;;;;;13079627;22;20322;-84
2021/06/22 13:41:20;;;;;;;8.02;3.60;;;;;;;;;;13076119;22;20014;-84
2021/06/22 13:46:24;;;;;;;4.72;2.85;;;;;;;;;;13071408;22;20307;-85
2021/06/22 13:51:27;;;;;;;5.85;2.85;;;;;;;;;;13072704;22;20000;-85
2021/06/22 13:56:28;;;;;;;6.85;2.83;;;;;;;;;;13071780;22;20003;-84
2021/06/22 14:01:29;;;;;;;4.93;3.63;;;;;;;;;;13073447;22;19999;-85
2021/06/22 14:06:30;;;;;;;6.30;3.08;;;;;;;;;;13071025;22;20010;-85
2021/06/22 14:11:31;;;;;;;5.10;2.72;;;;;;;;;;13071927;22;20339;-84
2021/06/22 14:16:34;;;;;;;3.60;2.60;;;;;;;;;;13074921;22;20003;-85
2021/06/22 14:21:34;;;;;;;4.22;3.15;;;;;;;;;;13077955;22;20034;-84
2021/06/22 14:26:35;;;;;;;6.65;3.78;;;;;;;;;;13075456;22;20011;-84
2021/06/22 14:31:39;;;;;;;5.07;3.30;;;;;;;;;;13077755;22;20003;-85
2021/06/22 14:36:40;;;;;;;6.50;3.00;;;;;;;;;;13081376;22;20018;-84
2021/06/22 14:41:41;;;;;;;7.53;3.13;;;;;;;;;;13075297;22;19995;-85
2021/06/22 14:46:42;;;;;;;4.40;2.60;;;;;;;;;;13075585;22;20057;-85
2021/06/22 14:51:43;;;;;;;5.85;2.78;;;;;;;;;;13071718;22;20022;-86
2021/06/22 14:56:44;;;;;;;5.93;3.13;;;;;;;;;;13073042;22;20010;-86
2021/06/22 15:01:45;;;;;;;6.28;3.70;;;;;;;;;;13085035;22;20017;-86
2021/06/22 15:06:46;;;;;;;8.80;4.00;;;;;;;;;;13079201;22;20007;-86
2021/06/22 15:11:48;;;;;;;5.65;3.50;;;;;;;;;;13076631;22;20038;-85
2021/06/22 15:16:50;;;;;;;7.00;4.90;;;;;;;;;;13075365;22;20014;-86
2021/06/22 15:21:51;;;;;;;4.90;3.80;;;;;;;;;;13077017;22;20015;-83
2021/06/22 15:26:52;;;;;;;9.02;3.53;;;;;;;;;;13083935;22;20007;-82
2021/06/22 15:31:54;;;;;;;6.10;3.40;;;;;;;;;;13079802;22;20015;-85
2021/06/22 15:36:55;;;;;;;8.35;4.10;;;;;;;;;;13074885;22;20026;-86
2021/06/22 15:41:56;;;;;;;4.75;3.55;;;;;;;;;;13072807;22;20014;-85
2021/06/22 15:46:57;;;;;;;5.65;3.95;;;;;;;;;;13072283;22;20007;-87
2021/06/22 15:51:58;;;;;;;4.82;4.05;;;;;;;;;;13074942;22;20018;-87
2021/06/22 15:56:59;;;;;;;7.32;4.75;;;;;;;;;;13076183;22;20022;-86
2021/06/22 16:02:00;;;;;;;5.05;4.07;;;;;;;;;;13087208;22;20052;-86
2021/06/22 16:07:01;;;;;;;5.70;4.35;;;;;;;;;;13087886;22;20019;-86
2021/06/22 16:12:03;;;;;;;7.65;5.25;;;;;;;;;;13079487;22;19999;-85
2021/06/22 16:17:04;;;;;;;5.20;4.60;;;;;;;;;;13074888;22;19996;-84
2021/06/22 16:22:05;;;;;;;6.10;4.30;;;;;;;;;;13077534;22;20466;-86
2021/06/22 16:27:30;;;;;;;4.68;3.78;;;;;;;;;;13064289;22;20003;-89
2021/06/22 16:32:47;;;;;;;5.13;3.95;;;;;;;;;;13055921;22;20003;-88
2021/06/22 16:49:27;;;;;;;7.43;6.70;;;;;;;;;;13058510;22;20070;-88
2021/06/22 17:00:37;;;;;;;7.85;6.57;;;;;;;;;;13078975;22;19898;-87
2021/06/22 17:06:14;;;;;;;6.10;5.50;;;;;;;;;;13049541;22;20007;-88
2021/06/22 17:11:43;;;;;;;10.90;8.40;;;;;;;;;;13059093;22;20026;-89
2021/06/22 17:17:37;;;;;;;7.57;5.07;;;;;;;;;;12927019;23;20341;-88
2021/06/22 19:40:28;;;;;;;8.48;7.55;;;;;;;;;;12889238;23;20021;-85
2021/06/22 19:51:30;;;;;;;7.95;7.25;;;;;;;;;;12887698;23;20016;-85
2021/06/22 19:56:32;;;;;;;6.10;5.43;;;;;;;;;;12862845;23;20004;-85
2021/06/22 20:02:01;;;;;;;5.80;5.18;;;;;;;;;;12883215;23;20001;-85
2021/06/22 20:07:02;;;;;;;7.32;6.57;;;;;;;;;;12855979;23;20005;-86
2021/06/22 20:12:03;;;;;;;8.85;7.93;;;;;;;;;;12855272;23;20413;-86
2021/06/22 20:17:04;;;;;;;6.57;5.88;;;;;;;;;;12857500;23;20008;-86
